Terminal Aerodrome Forecast
Issued by NWS

Home | Current Version | Previous Version | Text Only | Print | Product List | Glossary On
Versions: 1 2 3 4 5 6 7 8 9 10 11 12 13 14 15 16 17
000
FTUS41 KBTV 290522
TAFRUT
TAF
KRUT 290522Z 2906/3006 13008KT P6SM BKN100
     FM291100 VRB03KT P6SM VCSH SCT060 OVC080
     FM291600 31009KT P6SM BKN050
     FM291800 29012G18KT P6SM BKN060
     FM300200 33009G16KT P6SM FEW140=

USA.gov is the U.S. government's official web portal to all federal, state and local government web resources and services.